sensor_id;sensor_type;location;lat;lon;timestamp;temperature;humidity
11597;DHT22;5854;48.072;16.286;2022-10-16T00:00:43;12.80;90.70
11597;DHT22;5854;48.072;16.286;2022-10-16T00:03:11;12.80;91.10
11597;DHT22;5854;48.072;16.286;2022-10-16T00:05:39;12.80;90.40
11597;DHT22;5854;48.072;16.286;2022-10-16T00:08:11;12.70;90.20
11597;DHT22;5854;48.072;16.286;2022-10-16T00:10:39;12.60;92.10
11597;DHT22;5854;48.072;16.286;2022-10-16T00:13:07;12.70;92.90
11597;DHT22;5854;48.072;16.286;2022-10-16T00:15:36;12.70;91.10
11597;DHT22;5854;48.072;16.286;2022-10-16T00:18:05;12.70;92.40
11597;DHT22;5854;48.072;16.286;2022-10-16T00:20:34;12.70;92.30
11597;DHT22;5854;48.072;16.286;2022-10-16T00:23:02;12.80;91.70
11597;DHT22;5854;48.072;16.286;2022-10-16T00:25:33;12.70;91.30
11597;DHT22;5854;48.072;16.286;2022-10-16T00:28:00;12.70;92.10
11597;DHT22;5854;48.072;16.286;2022-10-16T00:30:27;12.70;91.80
11597;DHT22;5854;48.072;16.286;2022-10-16T00:32:54;12.60;94.30
11597;DHT22;5854;48.072;16.286;2022-10-16T00:35:22;12.60;96.00
11597;DHT22;5854;48.072;16.286;2022-10-16T00:37:49;12.60;96.70
11597;DHT22;5854;48.072;16.286;2022-10-16T00:40:17;12.60;95.80
11597;DHT22;5854;48.072;16.286;2022-10-16T00:42:45;12.70;95.40
11597;DHT22;5854;48.072;16.286;2022-10-16T00:45:13;12.70;95.50
11597;DHT22;5854;48.072;16.286;2022-10-16T00:47:43;12.70;96.40
11597;DHT22;5854;48.072;16.286;2022-10-16T00:50:20;12.70;95.50
11597;DHT22;5854;48.072;16.286;2022-10-16T00:52:51;12.70;93.60
11597;DHT22;5854;48.072;16.286;2022-10-16T00:55:19;12.80;93.50
11597;DHT22;5854;48.072;16.286;2022-10-16T00:57:50;12.80;92.90
11597;DHT22;5854;48.072;16.286;2022-10-16T01:00:21;12.80;93.20
11597;DHT22;5854;48.072;16.286;2022-10-16T01:02:53;12.80;92.90
11597;DHT22;5854;48.072;16.286;2022-10-16T01:05:21;12.80;92.10
11597;DHT22;5854;48.072;16.286;2022-10-16T01:07:56;12.80;93.00
11597;DHT22;5854;48.072;16.286;2022-10-16T01:10:31;12.80;93.10
11597;DHT22;5854;48.072;16.286;2022-10-16T01:13:07;12.70;96.90
11597;DHT22;5854;48.072;16.286;2022-10-16T01:15:40;12.80;93.80
11597;DHT22;5854;48.072;16.286;2022-10-16T01:18:17;12.80;92.10
11597;DHT22;5854;48.072;16.286;2022-10-16T01:20:51;12.80;91.60
11597;DHT22;5854;48.072;16.286;2022-10-16T01:23:36;12.80;91.50
11597;DHT22;5854;48.072;16.286;2022-10-16T01:26:19;12.80;91.20
11597;DHT22;5854;48.072;16.286;2022-10-16T01:28:55;12.80;90.70
11597;DHT22;5854;48.072;16.286;2022-10-16T01:31:28;12.90;90.20
11597;DHT22;5854;48.072;16.286;2022-10-16T01:34:02;12.80;90.20
11597;DHT22;5854;48.072;16.286;2022-10-16T01:36:36;12.80;90.00
11597;DHT22;5854;48.072;16.286;2022-10-16T01:39:09;12.80;90.20
11597;DHT22;5854;48.072;16.286;2022-10-16T01:41:40;12.70;91.90
11597;DHT22;5854;48.072;16.286;2022-10-16T01:44:17;12.70;91.20
11597;DHT22;5854;48.072;16.286;2022-10-16T01:46:49;12.70;91.20
11597;DHT22;5854;48.072;16.286;2022-10-16T01:49:17;12.60;90.40
11597;DHT22;5854;48.072;16.286;2022-10-16T01:51:47;12.60;91.30
11597;DHT22;5854;48.072;16.286;2022-10-16T01:54:19;12.50;92.30
11597;DHT22;5854;48.072;16.286;2022-10-16T01:56:47;12.50;94.10
11597;DHT22;5854;48.072;16.286;2022-10-16T01:59:19;12.40;94.40
11597;DHT22;5854;48.072;16.286;2022-10-16T02:01:49;12.50;94.50
11597;DHT22;5854;48.072;16.286;2022-10-16T02:04:21;12.50;92.70
11597;DHT22;5854;48.072;16.286;2022-10-16T02:06:52;12.50;92.10
11597;DHT22;5854;48.072;16.286;2022-10-16T02:09:19;12.40;91.80
11597;DHT22;5854;48.072;16.286;2022-10-16T02:11:47;12.50;92.00
11597;DHT22;5854;48.072;16.286;2022-10-16T02:14:15;12.50;91.50
11597;DHT22;5854;48.072;16.286;2022-10-16T02:16:45;12.50;92.20
11597;DHT22;5854;48.072;16.286;2022-10-16T02:19:13;12.50;94.40
11597;DHT22;5854;48.072;16.286;2022-10-16T02:21:46;12.50;94.20
11597;DHT22;5854;48.072;16.286;2022-10-16T02:24:23;12.50;93.50
11597;DHT22;5854;48.072;16.286;2022-10-16T02:27:00;12.50;92.30
11597;DHT22;5854;48.072;16.286;2022-10-16T02:29:38;12.50;93.20
11597;DHT22;5854;48.072;16.286;2022-10-16T02:32:10;12.50;94.80
11597;DHT22;5854;48.072;16.286;2022-10-16T02:34:39;12.50;94.10
11597;DHT22;5854;48.072;16.286;2022-10-16T02:37:08;12.50;93.50
11597;DHT22;5854;48.072;16.286;2022-10-16T02:39:37;12.50;93.10
11597;DHT22;5854;48.072;16.286;2022-10-16T02:42:09;12.50;92.40
11597;DHT22;5854;48.072;16.286;2022-10-16T02:44:38;12.60;91.60
11597;DHT22;5854;48.072;16.286;2022-10-16T02:47:06;12.60;91.10
11597;DHT22;5854;48.072;16.286;2022-10-16T02:49:33;12.50;90.90
11597;DHT22;5854;48.072;16.286;2022-10-16T02:52:00;12.60;90.90
11597;DHT22;5854;48.072;16.286;2022-10-16T02:54:27;12.50;90.90
11597;DHT22;5854;48.072;16.286;2022-10-16T02:56:54;12.60;91.00
11597;DHT22;5854;48.072;16.286;2022-10-16T02:59:21;12.60;90.70
11597;DHT22;5854;48.072;16.286;2022-10-16T03:01:49;12.60;90.40
11597;DHT22;5854;48.072;16.286;2022-10-16T03:04:16;12.50;90.50
11597;DHT22;5854;48.072;16.286;2022-10-16T03:06:43;12.50;91.40
11597;DHT22;5854;48.072;16.286;2022-10-16T03:09:10;12.50;91.30
11597;DHT22;5854;48.072;16.286;2022-10-16T03:11:37;12.50;93.30
11597;DHT22;5854;48.072;16.286;2022-10-16T03:14:05;12.50;93.90
11597;DHT22;5854;48.072;16.286;2022-10-16T03:16:33;12.40;96.70
11597;DHT22;5854;48.072;16.286;2022-10-16T03:19:01;12.40;98.40
11597;DHT22;5854;48.072;16.286;2022-10-16T03:21:28;12.30;99.20
11597;DHT22;5854;48.072;16.286;2022-10-16T03:23:55;12.30;99.20
11597;DHT22;5854;48.072;16.286;2022-10-16T03:26:22;12.30;99.90
11597;DHT22;5854;48.072;16.286;2022-10-16T03:28:49;12.30;99.90
11597;DHT22;5854;48.072;16.286;2022-10-16T03:31:16;12.30;98.50
11597;DHT22;5854;48.072;16.286;2022-10-16T03:33:43;12.30;98.20
11597;DHT22;5854;48.072;16.286;2022-10-16T03:36:12;12.40;95.60
11597;DHT22;5854;48.072;16.286;2022-10-16T03:38:39;12.40;96.90
11597;DHT22;5854;48.072;16.286;2022-10-16T03:41:06;12.40;98.00
11597;DHT22;5854;48.072;16.286;2022-10-16T03:43:33;12.30;99.20
11597;DHT22;5854;48.072;16.286;2022-10-16T03:46:01;12.30;99.90
11597;DHT22;5854;48.072;16.286;2022-10-16T03:48:29;12.30;99.90
11597;DHT22;5854;48.072;16.286;2022-10-16T03:50:57;12.30;99.70
11597;DHT22;5854;48.072;16.286;2022-10-16T03:53:25;12.30;98.60
11597;DHT22;5854;48.072;16.286;2022-10-16T03:55:52;12.30;98.40
11597;DHT22;5854;48.072;16.286;2022-10-16T03:58:19;12.30;99.80
11597;DHT22;5854;48.072;16.286;2022-10-16T04:00:47;12.30;99.90
11597;DHT22;5854;48.072;16.286;2022-10-16T04:03:14;12.20;99.90
11597;DHT22;5854;48.072;16.286;2022-10-16T04:05:41;12.30;99.90
11597;DHT22;5854;48.072;16.286;2022-10-16T04:08:08;12.30;97.80
11597;DHT22;5854;48.072;16.286;2022-10-16T04:10:36;12.30;95.30
11597;DHT22;5854;48.072;16.286;2022-10-16T04:13:03;12.30;94.40
11597;DHT22;5854;48.072;16.286;2022-10-16T04:15:30;12.30;95.80
11597;DHT22;5854;48.072;16.286;2022-10-16T04:17:57;12.30;96.20
11597;DHT22;5854;48.072;16.286;2022-10-16T04:20:25;12.30;96.50
11597;DHT22;5854;48.072;16.286;2022-10-16T04:22:52;12.30;97.50
11597;DHT22;5854;48.072;16.286;2022-10-16T04:25:19;12.30;97.60
11597;DHT22;5854;48.072;16.286;2022-10-16T04:27:47;12.30;96.70
11597;DHT22;5854;48.072;16.286;2022-10-16T04:30:14;12.20;97.30
11597;DHT22;5854;48.072;16.286;2022-10-16T04:32:42;12.20;95.60
11597;DHT22;5854;48.072;16.286;2022-10-16T04:35:09;12.30;97.20
11597;DHT22;5854;48.072;16.286;2022-10-16T04:37:36;12.30;95.00
11597;DHT22;5854;48.072;16.286;2022-10-16T04:40:04;12.30;93.10
11597;DHT22;5854;48.072;16.286;2022-10-16T04:42:31;12.20;92.40
11597;DHT22;5854;48.072;16.286;2022-10-16T04:45:00;12.30;92.20
11597;DHT22;5854;48.072;16.286;2022-10-16T04:47:27;12.20;93.00
11597;DHT22;5854;48.072;16.286;2022-10-16T04:49:54;12.20;92.90
11597;DHT22;5854;48.072;16.286;2022-10-16T04:52:22;12.20;92.50
11597;DHT22;5854;48.072;16.286;2022-10-16T04:54:50;12.10;92.90
11597;DHT22;5854;48.072;16.286;2022-10-16T04:57:17;12.20;92.20
11597;DHT22;5854;48.072;16.286;2022-10-16T04:59:44;12.10;92.00
11597;DHT22;5854;48.072;16.286;2022-10-16T05:02:13;12.10;91.10
11597;DHT22;5854;48.072;16.286;2022-10-16T05:04:40;12.00;89.80
11597;DHT22;5854;48.072;16.286;2022-10-16T05:07:07;11.90;91.50
11597;DHT22;5854;48.072;16.286;2022-10-16T05:09:34;11.90;91.20
11597;DHT22;5854;48.072;16.286;2022-10-16T05:12:01;12.00;92.00
11597;DHT22;5854;48.072;16.286;2022-10-16T05:14:29;11.90;92.70
11597;DHT22;5854;48.072;16.286;2022-10-16T05:16:57;12.00;91.90
11597;DHT22;5854;48.072;16.286;2022-10-16T05:19:25;11.90;91.10
11597;DHT22;5854;48.072;16.286;2022-10-16T05:21:52;11.90;91.60
11597;DHT22;5854;48.072;16.286;2022-10-16T05:24:19;12.00;91.50
11597;DHT22;5854;48.072;16.286;2022-10-16T05:26:46;12.00;90.90
11597;DHT22;5854;48.072;16.286;2022-10-16T05:29:13;12.00;91.10
11597;DHT22;5854;48.072;16.286;2022-10-16T05:31:40;12.00;90.30
11597;DHT22;5854;48.072;16.286;2022-10-16T05:34:08;12.00;91.00
11597;DHT22;5854;48.072;16.286;2022-10-16T05:36:36;12.10;91.30
11597;DHT22;5854;48.072;16.286;2022-10-16T05:39:03;12.10;91.00
11597;DHT22;5854;48.072;16.286;2022-10-16T05:41:32;12.10;90.70
11597;DHT22;5854;48.072;16.286;2022-10-16T05:44:00;12.10;90.70
11597;DHT22;5854;48.072;16.286;2022-10-16T05:46:27;12.10;90.80
11597;DHT22;5854;48.072;16.286;2022-10-16T05:48:54;12.00;92.60
11597;DHT22;5854;48.072;16.286;2022-10-16T05:51:22;12.00;92.80
11597;DHT22;5854;48.072;16.286;2022-10-16T05:53:51;12.00;95.70
11597;DHT22;5854;48.072;16.286;2022-10-16T05:56:18;12.00;93.50
11597;DHT22;5854;48.072;16.286;2022-10-16T05:58:46;12.10;92.30
11597;DHT22;5854;48.072;16.286;2022-10-16T06:01:14;12.10;91.90
11597;DHT22;5854;48.072;16.286;2022-10-16T06:03:43;12.20;91.10
11597;DHT22;5854;48.072;16.286;2022-10-16T06:06:12;12.20;94.40
11597;DHT22;5854;48.072;16.286;2022-10-16T06:08:40;12.20;95.20
11597;DHT22;5854;48.072;16.286;2022-10-16T06:11:11;12.20;93.60
11597;DHT22;5854;48.072;16.286;2022-10-16T06:13:39;12.20;92.80
11597;DHT22;5854;48.072;16.286;2022-10-16T06:16:07;12.30;92.30
11597;DHT22;5854;48.072;16.286;2022-10-16T06:18:34;12.30;94.50
11597;DHT22;5854;48.072;16.286;2022-10-16T06:21:07;12.30;95.40
11597;DHT22;5854;48.072;16.286;2022-10-16T06:23:37;12.20;97.40
11597;DHT22;5854;48.072;16.286;2022-10-16T06:26:06;12.30;94.20
11597;DHT22;5854;48.072;16.286;2022-10-16T06:28:38;12.30;95.90
11597;DHT22;5854;48.072;16.286;2022-10-16T06:31:08;12.20;93.50
11597;DHT22;5854;48.072;16.286;2022-10-16T06:33:36;12.20;92.80
11597;DHT22;5854;48.072;16.286;2022-10-16T06:36:06;12.30;92.80
11597;DHT22;5854;48.072;16.286;2022-10-16T06:38:35;12.40;94.30
11597;DHT22;5854;48.072;16.286;2022-10-16T06:41:03;12.40;92.70
11597;DHT22;5854;48.072;16.286;2022-10-16T06:43:36;12.40;92.90
11597;DHT22;5854;48.072;16.286;2022-10-16T06:46:05;12.40;93.80
11597;DHT22;5854;48.072;16.286;2022-10-16T06:48:34;12.40;94.10
11597;DHT22;5854;48.072;16.286;2022-10-16T06:51:04;12.30;93.70
11597;DHT22;5854;48.072;16.286;2022-10-16T06:53:34;12.30;94.50
11597;DHT22;5854;48.072;16.286;2022-10-16T06:56:07;12.30;94.40
11597;DHT22;5854;48.072;16.286;2022-10-16T06:58:37;12.30;94.00
11597;DHT22;5854;48.072;16.286;2022-10-16T07:01:06;12.30;93.60
11597;DHT22;5854;48.072;16.286;2022-10-16T07:03:36;12.30;91.70
11597;DHT22;5854;48.072;16.286;2022-10-16T07:06:08;12.30;93.00
11597;DHT22;5854;48.072;16.286;2022-10-16T07:08:39;12.40;91.10
11597;DHT22;5854;48.072;16.286;2022-10-16T07:11:08;12.50;92.00
11597;DHT22;5854;48.072;16.286;2022-10-16T07:13:39;12.50;90.70
11597;DHT22;5854;48.072;16.286;2022-10-16T07:16:08;12.60;92.00
11597;DHT22;5854;48.072;16.286;2022-10-16T07:18:37;12.60;92.80
11597;DHT22;5854;48.072;16.286;2022-10-16T07:21:07;12.60;92.50
11597;DHT22;5854;48.072;16.286;2022-10-16T07:26:29;12.70;93.30
11597;DHT22;5854;48.072;16.286;2022-10-16T07:31:50;12.40;98.40
11597;DHT22;5854;48.072;16.286;2022-10-16T07:34:19;12.40;95.00
11597;DHT22;5854;48.072;16.286;2022-10-16T07:37:07;12.60;97.00
11597;DHT22;5854;48.072;16.286;2022-10-16T07:39:37;12.60;96.40
11597;DHT22;5854;48.072;16.286;2022-10-16T07:42:05;12.30;99.30
11597;DHT22;5854;48.072;16.286;2022-10-16T07:44:33;12.30;99.70
11597;DHT22;5854;48.072;16.286;2022-10-16T07:47:02;12.40;99.90
11597;DHT22;5854;48.072;16.286;2022-10-16T07:49:29;12.50;97.80
11597;DHT22;5854;48.072;16.286;2022-10-16T07:54:32;12.30;99.90
11597;DHT22;5854;48.072;16.286;2022-10-16T07:56:59;12.10;99.90
11597;DHT22;5854;48.072;16.286;2022-10-16T07:59:26;12.10;99.90
11597;DHT22;5854;48.072;16.286;2022-10-16T08:01:53;12.10;99.90
11597;DHT22;5854;48.072;16.286;2022-10-16T08:04:22;12.20;99.90
11597;DHT22;5854;48.072;16.286;2022-10-16T08:06:50;12.10;99.90
11597;DHT22;5854;48.072;16.286;2022-10-16T08:09:20;12.00;99.90
11597;DHT22;5854;48.072;16.286;2022-10-16T08:11:47;12.00;99.90
11597;DHT22;5854;48.072;16.286;2022-10-16T08:14:14;11.90;99.90
11597;DHT22;5854;48.072;16.286;2022-10-16T08:16:41;11.80;99.90
11597;DHT22;5854;48.072;16.286;2022-10-16T08:19:08;11.80;99.90
11597;DHT22;5854;48.072;16.286;2022-10-16T08:21:37;11.80;99.90
11597;DHT22;5854;48.072;16.286;2022-10-16T08:24:04;11.90;99.90
11597;DHT22;5854;48.072;16.286;2022-10-16T08:26:32;12.20;99.90
11597;DHT22;5854;48.072;16.286;2022-10-16T08:28:59;12.30;99.90
11597;DHT22;5854;48.072;16.286;2022-10-16T08:31:26;12.30;99.90
11597;DHT22;5854;48.072;16.286;2022-10-16T08:33:53;12.30;99.90
11597;DHT22;5854;48.072;16.286;2022-10-16T08:36:21;12.40;99.90
11597;DHT22;5854;48.072;16.286;2022-10-16T08:38:50;12.50;99.90
11597;DHT22;5854;48.072;16.286;2022-10-16T08:44:49;12.80;99.90
11597;DHT22;5854;48.072;16.286;2022-10-16T08:47:39;13.00;99.90
11597;DHT22;5854;48.072;16.286;2022-10-16T08:50:13;13.10;99.90
11597;DHT22;5854;48.072;16.286;2022-10-16T08:52:43;13.00;99.90
11597;DHT22;5854;48.072;16.286;2022-10-16T08:55:29;12.80;99.90
11597;DHT22;5854;48.072;16.286;2022-10-16T08:57:59;12.70;99.90
11597;DHT22;5854;48.072;16.286;2022-10-16T09:00:27;12.80;99.90
11597;DHT22;5854;48.072;16.286;2022-10-16T09:03:03;12.90;99.90
11597;DHT22;5854;48.072;16.286;2022-10-16T09:05:54;13.00;99.90
11597;DHT22;5854;48.072;16.286;2022-10-16T09:08:34;13.20;99.90
11597;DHT22;5854;48.072;16.286;2022-10-16T09:11:13;13.30;99.90
11597;DHT22;5854;48.072;16.286;2022-10-16T09:13:49;13.40;99.90
11597;DHT22;5854;48.072;16.286;2022-10-16T09:16:24;13.40;99.00
11597;DHT22;5854;48.072;16.286;2022-10-16T09:18:58;13.30;99.90
11597;DHT22;5854;48.072;16.286;2022-10-16T09:21:30;13.20;99.90
11597;DHT22;5854;48.072;16.286;2022-10-16T09:24:00;13.00;99.90
11597;DHT22;5854;48.072;16.286;2022-10-16T09:26:38;12.90;99.90
11597;DHT22;5854;48.072;16.286;2022-10-16T09:29:05;13.10;99.90
11597;DHT22;5854;48.072;16.286;2022-10-16T09:31:32;13.20;99.90
11597;DHT22;5854;48.072;16.286;2022-10-16T09:34:08;13.20;99.90
11597;DHT22;5854;48.072;16.286;2022-10-16T09:39:15;13.40;99.90
11597;DHT22;5854;48.072;16.286;2022-10-16T09:41:44;13.40;99.90
11597;DHT22;5854;48.072;16.286;2022-10-16T09:44:20;13.40;99.90
11597;DHT22;5854;48.072;16.286;2022-10-16T09:47:00;13.30;99.90
11597;DHT22;5854;48.072;16.286;2022-10-16T09:49:27;13.20;99.90
11597;DHT22;5854;48.072;16.286;2022-10-16T09:52:03;13.30;99.90
11597;DHT22;5854;48.072;16.286;2022-10-16T09:54:31;13.50;99.90
11597;DHT22;5854;48.072;16.286;2022-10-16T09:57:06;13.30;99.90
11597;DHT22;5854;48.072;16.286;2022-10-16T09:59:34;13.40;99.90
11597;DHT22;5854;48.072;16.286;2022-10-16T10:02:14;13.60;99.90
11597;DHT22;5854;48.072;16.286;2022-10-16T10:04:48;13.60;99.90
11597;DHT22;5854;48.072;16.286;2022-10-16T10:07:19;13.50;99.90
11597;DHT22;5854;48.072;16.286;2022-10-16T10:09:48;13.30;99.90
11597;DHT22;5854;48.072;16.286;2022-10-16T10:12:20;13.20;99.90
11597;DHT22;5854;48.072;16.286;2022-10-16T10:14:50;13.30;99.90
11597;DHT22;5854;48.072;16.286;2022-10-16T10:17:19;13.40;99.90
11597;DHT22;5854;48.072;16.286;2022-10-16T10:19:50;13.50;99.90
11597;DHT22;5854;48.072;16.286;2022-10-16T10:22:23;13.60;99.90
11597;DHT22;5854;48.072;16.286;2022-10-16T10:24:56;13.60;99.90
11597;DHT22;5854;48.072;16.286;2022-10-16T10:27:32;13.60;99.90
11597;DHT22;5854;48.072;16.286;2022-10-16T10:30:08;13.60;99.90
11597;DHT22;5854;48.072;16.286;2022-10-16T10:32:48;13.70;99.90
11597;DHT22;5854;48.072;16.286;2022-10-16T10:35:27;13.80;99.90
11597;DHT22;5854;48.072;16.286;2022-10-16T10:38:06;13.90;98.00
11597;DHT22;5854;48.072;16.286;2022-10-16T10:40:45;13.90;98.40
11597;DHT22;5854;48.072;16.286;2022-10-16T10:43:31;13.90;99.90
11597;DHT22;5854;48.072;16.286;2022-10-16T10:46:11;13.90;99.90
11597;DHT22;5854;48.072;16.286;2022-10-16T10:48:51;13.80;99.90
11597;DHT22;5854;48.072;16.286;2022-10-16T10:51:25;13.80;99.40
11597;DHT22;5854;48.072;16.286;2022-10-16T10:54:03;13.90;95.50
11597;DHT22;5854;48.072;16.286;2022-10-16T10:56:43;14.00;91.00
11597;DHT22;5854;48.072;16.286;2022-10-16T10:59:39;14.10;93.20
11597;DHT22;5854;48.072;16.286;2022-10-16T11:02:24;14.20;93.50
11597;DHT22;5854;48.072;16.286;2022-10-16T11:05:14;14.20;97.10
11597;DHT22;5854;48.072;16.286;2022-10-16T11:07:59;14.30;97.70
11597;DHT22;5854;48.072;16.286;2022-10-16T11:10:30;14.30;96.20
11597;DHT22;5854;48.072;16.286;2022-10-16T11:13:09;14.30;98.00
11597;DHT22;5854;48.072;16.286;2022-10-16T11:15:44;14.30;98.90
11597;DHT22;5854;48.072;16.286;2022-10-16T11:18:18;14.10;99.50
11597;DHT22;5854;48.072;16.286;2022-10-16T11:20:53;14.10;99.10
11597;DHT22;5854;48.072;16.286;2022-10-16T11:28:39;14.50;98.50
11597;DHT22;5854;48.072;16.286;2022-10-16T11:31:17;14.60;97.60
11597;DHT22;5854;48.072;16.286;2022-10-16T11:33:52;14.60;98.40
11597;DHT22;5854;48.072;16.286;2022-10-16T11:36:25;14.70;99.10
11597;DHT22;5854;48.072;16.286;2022-10-16T11:39:00;14.90;95.80
11597;DHT22;5854;48.072;16.286;2022-10-16T11:41:35;15.00;97.10
11597;DHT22;5854;48.072;16.286;2022-10-16T11:44:14;15.00;96.80
11597;DHT22;5854;48.072;16.286;2022-10-16T11:46:51;15.00;90.20
11597;DHT22;5854;48.072;16.286;2022-10-16T11:49:25;15.10;93.50
11597;DHT22;5854;48.072;16.286;2022-10-16T11:51:59;15.20;93.20
11597;DHT22;5854;48.072;16.286;2022-10-16T11:54:37;15.20;88.10
11597;DHT22;5854;48.072;16.286;2022-10-16T11:57:13;15.40;92.80
11597;DHT22;5854;48.072;16.286;2022-10-16T11:59:46;15.60;95.10
11597;DHT22;5854;48.072;16.286;2022-10-16T12:02:38;15.70;90.60
11597;DHT22;5854;48.072;16.286;2022-10-16T12:05:22;15.70;86.90
11597;DHT22;5854;48.072;16.286;2022-10-16T12:08:02;15.80;93.60
11597;DHT22;5854;48.072;16.286;2022-10-16T12:10:33;15.80;88.80
11597;DHT22;5854;48.072;16.286;2022-10-16T12:13:03;15.90;86.10
11597;DHT22;5854;48.072;16.286;2022-10-16T12:15:32;15.90;93.00
11597;DHT22;5854;48.072;16.286;2022-10-16T12:18:02;16.00;93.80
11597;DHT22;5854;48.072;16.286;2022-10-16T12:20:30;16.00;93.80
11597;DHT22;5854;48.072;16.286;2022-10-16T12:23:02;15.90;91.20
11597;DHT22;5854;48.072;16.286;2022-10-16T12:25:33;16.00;94.50
11597;DHT22;5854;48.072;16.286;2022-10-16T12:28:03;16.00;95.50
11597;DHT22;5854;48.072;16.286;2022-10-16T12:30:33;16.20;95.20
11597;DHT22;5854;48.072;16.286;2022-10-16T12:33:04;16.20;86.60
11597;DHT22;5854;48.072;16.286;2022-10-16T12:35:34;16.10;85.80
11597;DHT22;5854;48.072;16.286;2022-10-16T12:38:07;16.20;90.60
11597;DHT22;5854;48.072;16.286;2022-10-16T12:40:39;16.30;94.30
11597;DHT22;5854;48.072;16.286;2022-10-16T12:43:25;16.40;94.00
11597;DHT22;5854;48.072;16.286;2022-10-16T12:46:18;16.40;93.20
11597;DHT22;5854;48.072;16.286;2022-10-16T12:48:50;16.50;93.20
11597;DHT22;5854;48.072;16.286;2022-10-16T12:51:33;16.60;91.30
11597;DHT22;5854;48.072;16.286;2022-10-16T12:54:02;16.50;91.30
11597;DHT22;5854;48.072;16.286;2022-10-16T12:56:39;16.60;94.30
11597;DHT22;5854;48.072;16.286;2022-10-16T12:59:19;16.60;93.00
11597;DHT22;5854;48.072;16.286;2022-10-16T13:02:01;16.70;90.70
11597;DHT22;5854;48.072;16.286;2022-10-16T13:05:00;16.80;92.60
11597;DHT22;5854;48.072;16.286;2022-10-16T13:07:52;16.70;90.60
11597;DHT22;5854;48.072;16.286;2022-10-16T13:10:26;16.80;92.40
11597;DHT22;5854;48.072;16.286;2022-10-16T13:13:16;16.80;92.30
11597;DHT22;5854;48.072;16.286;2022-10-16T13:16:02;16.70;80.80
11597;DHT22;5854;48.072;16.286;2022-10-16T13:18:44;16.70;92.20
11597;DHT22;5854;48.072;16.286;2022-10-16T13:21:29;16.90;93.60
11597;DHT22;5854;48.072;16.286;2022-10-16T13:24:04;16.90;89.80
11597;DHT22;5854;48.072;16.286;2022-10-16T13:26:42;16.90;89.80
11597;DHT22;5854;48.072;16.286;2022-10-16T13:29:12;17.00;91.50
11597;DHT22;5854;48.072;16.286;2022-10-16T13:31:40;17.10;90.50
11597;DHT22;5854;48.072;16.286;2022-10-16T13:34:14;17.10;90.40
11597;DHT22;5854;48.072;16.286;2022-10-16T13:36:47;17.10;91.00
11597;DHT22;5854;48.072;16.286;2022-10-16T13:39:22;17.20;90.10
11597;DHT22;5854;48.072;16.286;2022-10-16T13:42:04;17.20;89.50
11597;DHT22;5854;48.072;16.286;2022-10-16T13:44:37;17.20;87.20
11597;DHT22;5854;48.072;16.286;2022-10-16T13:47:15;17.20;90.20
11597;DHT22;5854;48.072;16.286;2022-10-16T13:49:44;17.20;90.10
11597;DHT22;5854;48.072;16.286;2022-10-16T13:52:20;17.30;91.70
11597;DHT22;5854;48.072;16.286;2022-10-16T13:54:47;17.30;90.80
11597;DHT22;5854;48.072;16.286;2022-10-16T13:57:15;17.30;90.80
11597;DHT22;5854;48.072;16.286;2022-10-16T13:59:43;17.30;90.10
11597;DHT22;5854;48.072;16.286;2022-10-16T14:02:19;17.30;90.30
11597;DHT22;5854;48.072;16.286;2022-10-16T14:04:50;17.40;90.50
11597;DHT22;5854;48.072;16.286;2022-10-16T14:07:23;17.40;90.00
11597;DHT22;5854;48.072;16.286;2022-10-16T14:09:53;17.40;89.10
11597;DHT22;5854;48.072;16.286;2022-10-16T14:12:22;17.40;88.80
11597;DHT22;5854;48.072;16.286;2022-10-16T14:14:51;17.50;89.90
11597;DHT22;5854;48.072;16.286;2022-10-16T14:17:22;17.50;87.40
11597;DHT22;5854;48.072;16.286;2022-10-16T14:19:51;17.50;86.60
11597;DHT22;5854;48.072;16.286;2022-10-16T14:22:33;17.50;87.60
11597;DHT22;5854;48.072;16.286;2022-10-16T14:25:02;17.60;85.30
11597;DHT22;5854;48.072;16.286;2022-10-16T14:27:57;17.50;89.20
11597;DHT22;5854;48.072;16.286;2022-10-16T14:30:27;17.40;93.10
11597;DHT22;5854;48.072;16.286;2022-10-16T14:32:58;17.20;99.90
11597;DHT22;5854;48.072;16.286;2022-10-16T14:35:29;17.20;96.80
11597;DHT22;5854;48.072;16.286;2022-10-16T14:38:00;17.10;98.20
11597;DHT22;5854;48.072;16.286;2022-10-16T14:40:29;17.10;98.50
11597;DHT22;5854;48.072;16.286;2022-10-16T14:42:58;17.00;98.00
11597;DHT22;5854;48.072;16.286;2022-10-16T14:45:28;16.90;97.90
11597;DHT22;5854;48.072;16.286;2022-10-16T14:47:58;16.80;99.90
11597;DHT22;5854;48.072;16.286;2022-10-16T14:50:27;16.60;99.90
11597;DHT22;5854;48.072;16.286;2022-10-16T14:52:54;16.70;99.30
11597;DHT22;5854;48.072;16.286;2022-10-16T14:55:24;16.80;99.10
11597;DHT22;5854;48.072;16.286;2022-10-16T14:57:55;16.70;99.90
11597;DHT22;5854;48.072;16.286;2022-10-16T15:00:23;16.50;99.90
11597;DHT22;5854;48.072;16.286;2022-10-16T15:02:51;16.40;99.90
11597;DHT22;5854;48.072;16.286;2022-10-16T15:05:22;16.40;99.90
11597;DHT22;5854;48.072;16.286;2022-10-16T15:12:56;16.00;99.90
11597;DHT22;5854;48.072;16.286;2022-10-16T15:15:35;16.00;99.90
11597;DHT22;5854;48.072;16.286;2022-10-16T15:18:03;16.00;99.90
11597;DHT22;5854;48.072;16.286;2022-10-16T15:20:33;15.90;99.90
11597;DHT22;5854;48.072;16.286;2022-10-16T15:23:01;15.80;99.90
11597;DHT22;5854;48.072;16.286;2022-10-16T15:25:36;15.70;99.90
11597;DHT22;5854;48.072;16.286;2022-10-16T15:28:13;15.60;99.90
11597;DHT22;5854;48.072;16.286;2022-10-16T15:30:45;15.60;99.90
11597;DHT22;5854;48.072;16.286;2022-10-16T15:33:22;15.50;99.90
11597;DHT22;5854;48.072;16.286;2022-10-16T16:09:29;14.80;99.90
11597;DHT22;5854;48.072;16.286;2022-10-16T16:11:56;14.70;99.90
11597;DHT22;5854;48.072;16.286;2022-10-16T16:14:26;14.70;99.90
11597;DHT22;5854;48.072;16.286;2022-10-16T16:16:54;14.60;99.90
11597;DHT22;5854;48.072;16.286;2022-10-16T16:19:21;14.70;99.90
11597;DHT22;5854;48.072;16.286;2022-10-16T16:21:48;14.80;99.90
11597;DHT22;5854;48.072;16.286;2022-10-16T16:24:19;14.90;99.90
11597;DHT22;5854;48.072;16.286;2022-10-16T16:26:49;15.00;99.90
11597;DHT22;5854;48.072;16.286;2022-10-16T16:29:17;15.00;99.90
11597;DHT22;5854;48.072;16.286;2022-10-16T16:31:48;15.00;99.90
11597;DHT22;5854;48.072;16.286;2022-10-16T16:34:22;15.00;99.90
11597;DHT22;5854;48.072;16.286;2022-10-16T16:36:53;15.00;99.60
11597;DHT22;5854;48.072;16.286;2022-10-16T16:39:23;15.00;99.10
11597;DHT22;5854;48.072;16.286;2022-10-16T16:41:58;15.00;98.50
11597;DHT22;5854;48.072;16.286;2022-10-16T16:44:29;15.00;98.30
11597;DHT22;5854;48.072;16.286;2022-10-16T16:46:56;15.00;98.10
11597;DHT22;5854;48.072;16.286;2022-10-16T16:49:24;14.90;98.10
11597;DHT22;5854;48.072;16.286;2022-10-16T16:51:52;14.90;98.00
11597;DHT22;5854;48.072;16.286;2022-10-16T16:54:21;14.90;97.90